Time;durP1;ratioP1;P1;durP2;ratioP2;P2;SDS_P1;SDS_P2;PMS_P1;PMS_P2;Temp;Humidity;BMP_temperature;BMP_pressure;BME280_temperature;BME280_humidity;BME280_pressure;Samples;Min_cycle;Max_cycle;Signal;HPM_P1;HPM_P2
2023/03/12 00:01:12;;;;;;;10.38;5.07;;;;;;;;;;5095157;28;20223;-44
2023/03/12 00:03:39;;;;;;;6.32;4.95;;;;;;;;;;5095655;28;20194;-46
2023/03/12 00:06:06;;;;;;;9.52;5.63;;;;;;;;;;5094288;28;20712;-44
2023/03/12 00:08:32;;;;;;;6.15;4.68;;;;;;;;;;5095141;28;20278;-44
2023/03/12 00:10:58;;;;;;;6.03;4.78;;;;;;;;;;5094412;28;20170;-44
2023/03/12 00:13:24;;;;;;;7.30;4.80;;;;;;;;;;5092617;28;20196;-45
2023/03/12 00:15:50;;;;;;;7.73;4.83;;;;;;;;;;5093749;28;20431;-44
2023/03/12 00:18:17;;;;;;;5.47;4.30;;;;;;;;;;5094669;28;20418;-44
2023/03/12 00:20:43;;;;;;;6.18;4.35;;;;;;;;;;5093629;28;20415;-44
2023/03/12 00:23:13;;;;;;;11.20;5.17;;;;;;;;;;5094704;28;20327;-44
2023/03/12 00:25:39;;;;;;;5.55;4.45;;;;;;;;;;5094841;28;20510;-44
2023/03/12 00:28:05;;;;;;;8.70;4.93;;;;;;;;;;5094421;28;20289;-44
2023/03/12 00:30:32;;;;;;;5.43;4.10;;;;;;;;;;5093726;28;20404;-46
2023/03/12 00:32:59;;;;;;;4.75;4.10;;;;;;;;;;5093043;28;20453;-43
2023/03/12 00:35:25;;;;;;;6.80;4.00;;;;;;;;;;5094402;28;20270;-44
2023/03/12 00:37:51;;;;;;;9.13;4.13;;;;;;;;;;5095130;28;20442;-44
2023/03/12 00:40:17;;;;;;;3.40;3.10;;;;;;;;;;5094279;28;20461;-44
2023/03/12 00:42:43;;;;;;;5.75;3.78;;;;;;;;;;5092497;28;20843;-44
2023/03/12 00:45:10;;;;;;;3.80;3.50;;;;;;;;;;5085463;28;20170;-44
2023/03/12 00:47:36;;;;;;;3.70;3.40;;;;;;;;;;5093219;28;20451;-44
2023/03/12 00:50:02;;;;;;;3.83;3.50;;;;;;;;;;5094640;28;20173;-44
2023/03/12 00:52:28;;;;;;;3.95;3.63;;;;;;;;;;5094813;28;20420;-44
2023/03/12 00:54:57;;;;;;;4.53;2.83;;;;;;;;;;5094461;28;20676;-45
2023/03/12 00:57:23;;;;;;;5.80;3.95;;;;;;;;;;5088982;28;20401;-45
2023/03/12 00:59:48;;;;;;;5.50;3.07;;;;;;;;;;5095198;28;20234;-44
2023/03/12 01:02:14;;;;;;;3.20;2.90;;;;;;;;;;5093763;28;20518;-44
2023/03/12 01:04:40;;;;;;;3.93;3.40;;;;;;;;;;5094965;28;20474;-44
2023/03/12 01:07:06;;;;;;;4.83;3.50;;;;;;;;;;5094756;28;20528;-46
2023/03/12 01:09:32;;;;;;;5.67;2.87;;;;;;;;;;5093944;28;20416;-44
2023/03/12 01:12:01;;;;;;;3.10;2.80;;;;;;;;;;5093800;28;20449;-45
2023/03/12 01:14:27;;;;;;;7.78;3.50;;;;;;;;;;5092663;28;20418;-44
2023/03/12 01:16:53;;;;;;;4.70;2.60;;;;;;;;;;5092634;28;20189;-45
2023/03/12 01:19:20;;;;;;;4.80;2.60;;;;;;;;;;5094730;28;20276;-46
2023/03/12 01:21:47;;;;;;;4.53;2.95;;;;;;;;;;5094259;28;20435;-43
2023/03/12 01:24:13;;;;;;;3.95;2.50;;;;;;;;;;5094236;28;20179;-46
2023/03/12 01:26:39;;;;;;;4.53;3.50;;;;;;;;;;5093795;28;20174;-44
2023/03/12 01:29:05;;;;;;;3.93;2.60;;;;;;;;;;5093283;28;20181;-44
2023/03/12 01:31:33;;;;;;;4.53;3.63;;;;;;;;;;5093982;28;20407;-45
2023/03/12 01:34:00;;;;;;;2.60;2.30;;;;;;;;;;5094039;28;20162;-43
2023/03/12 01:36:29;;;;;;;4.63;2.78;;;;;;;;;;5094087;28;20177;-44
2023/03/12 01:38:57;;;;;;;4.57;2.85;;;;;;;;;;5094055;28;20327;-44
2023/03/12 01:41:31;;;;;;;6.70;4.03;;;;;;;;;;5092431;28;20174;-44
2023/03/12 01:43:57;;;;;;;3.97;2.85;;;;;;;;;;5092054;28;20258;-44
2023/03/12 01:46:33;;;;;;;5.33;3.47;;;;;;;;;;5090855;28;20182;-45
2023/03/12 01:49:02;;;;;;;5.03;2.80;;;;;;;;;;5092359;28;20450;-46
2023/03/12 01:51:31;;;;;;;3.65;2.75;;;;;;;;;;5092592;28;20427;-45
2023/03/12 01:53:59;;;;;;;3.22;2.90;;;;;;;;;;5091765;28;20174;-45
2023/03/12 01:56:27;;;;;;;4.45;3.45;;;;;;;;;;5085850;28;20170;-44
2023/03/12 01:58:55;;;;;;;5.32;3.20;;;;;;;;;;5092454;28;20256;-44
2023/03/12 02:01:21;;;;;;;5.63;3.13;;;;;;;;;;5092266;28;20183;-44
2023/03/12 02:03:49;;;;;;;3.85;3.55;;;;;;;;;;5092959;28;20219;-44
2023/03/12 02:06:15;;;;;;;4.35;3.60;;;;;;;;;;5092766;28;20909;-44
2023/03/12 02:08:43;;;;;;;10.93;3.15;;;;;;;;;;5092262;28;20792;-44
2023/03/12 02:11:09;;;;;;;3.38;3.10;;;;;;;;;;5084297;28;20271;-43
2023/03/12 02:13:36;;;;;;;5.77;2.93;;;;;;;;;;5092727;28;20254;-44
2023/03/12 02:16:02;;;;;;;3.78;2.80;;;;;;;;;;5090975;28;20439;-46
2023/03/12 02:18:28;;;;;;;7.57;3.10;;;;;;;;;;5092410;28;20174;-43
2023/03/12 02:21:00;;;;;;;8.75;2.95;;;;;;;;;;5092146;28;20188;-44
2023/03/12 02:23:26;;;;;;;8.45;2.50;;;;;;;;;;5092980;28;20684;-44
2023/03/12 02:25:56;;;;;;;2.67;2.47;;;;;;;;;;5093021;28;20185;-45
2023/03/12 02:28:26;;;;;;;6.15;2.80;;;;;;;;;;5093016;28;20451;-46
2023/03/12 02:30:55;;;;;;;3.17;2.47;;;;;;;;;;5092805;28;20180;-45
2023/03/12 02:33:21;;;;;;;4.55;3.05;;;;;;;;;;5092966;28;20260;-44
2023/03/12 02:35:47;;;;;;;5.07;2.33;;;;;;;;;;5092608;28;20173;-46
2023/03/12 02:38:30;;;;;;;8.95;3.53;;;;;;;;;;5092782;28;20415;-46
2023/03/12 02:40:57;;;;;;;6.03;3.60;;;;;;;;;;5091587;28;20185;-44
2023/03/12 02:43:25;;;;;;;4.03;2.65;;;;;;;;;;5093018;28;20224;-47
2023/03/12 02:45:51;;;;;;;7.65;2.50;;;;;;;;;;5088242;28;20236;-44
2023/03/12 02:48:17;;;;;;;3.80;3.03;;;;;;;;;;5087762;28;20204;-45
2023/03/12 02:50:44;;;;;;;2.78;2.53;;;;;;;;;;5092179;28;20256;-44
2023/03/12 02:53:10;;;;;;;2.72;2.50;;;;;;;;;;5092661;28;20276;-46
2023/03/12 02:55:36;;;;;;;5.73;2.80;;;;;;;;;;5092085;28;20197;-46
2023/03/12 02:58:03;;;;;;;2.50;2.30;;;;;;;;;;5091789;28;20427;-46
2023/03/12 03:00:31;;;;;;;3.45;2.75;;;;;;;;;;5091958;28;20942;-45
2023/03/12 03:02:58;;;;;;;4.68;2.95;;;;;;;;;;5092655;28;20220;-46
2023/03/12 03:05:25;;;;;;;9.90;3.47;;;;;;;;;;5093114;28;20182;-44
2023/03/12 03:07:52;;;;;;;3.00;2.50;;;;;;;;;;5095327;28;20700;-44
2023/03/12 03:10:19;;;;;;;3.05;2.60;;;;;;;;;;5095417;28;20579;-45
2023/03/12 03:12:45;;;;;;;5.03;2.70;;;;;;;;;;5094719;28;20569;-44
2023/03/12 03:15:11;;;;;;;2.80;2.55;;;;;;;;;;5096047;28;20212;-44
2023/03/12 03:17:39;;;;;;;4.53;2.72;;;;;;;;;;5096391;28;20266;-46
2023/03/12 03:20:09;;;;;;;2.85;2.65;;;;;;;;;;5095139;28;20174;-43
2023/03/12 03:22:35;;;;;;;8.90;2.70;;;;;;;;;;5095696;28;20227;-44
2023/03/12 03:25:01;;;;;;;2.67;2.42;;;;;;;;;;5095371;28;20610;-44
2023/03/12 03:27:27;;;;;;;3.33;3.03;;;;;;;;;;5095426;28;20200;-44
2023/03/12 03:29:53;;;;;;;2.60;2.40;;;;;;;;;;5095361;28;20174;-44
2023/03/12 03:32:19;;;;;;;4.20;2.50;;;;;;;;;;5093070;28;20436;-44
2023/03/12 03:34:45;;;;;;;4.30;2.67;;;;;;;;;;5094390;28;20458;-45
2023/03/12 03:37:13;;;;;;;5.85;3.00;;;;;;;;;;5095741;28;20474;-45
2023/03/12 03:39:39;;;;;;;2.78;2.25;;;;;;;;;;5095522;28;20173;-45
2023/03/12 03:42:05;;;;;;;2.30;2.20;;;;;;;;;;5094802;28;20219;-44
2023/03/12 03:44:31;;;;;;;2.60;2.50;;;;;;;;;;5095353;28;20407;-46
2023/03/12 03:46:58;;;;;;;4.57;2.50;;;;;;;;;;5095167;28;20533;-44
2023/03/12 03:49:25;;;;;;;5.22;2.97;;;;;;;;;;5094637;28;20415;-44
2023/03/12 03:51:52;;;;;;;5.13;2.75;;;;;;;;;;5094234;28;20205;-44
2023/03/12 03:54:19;;;;;;;7.43;2.95;;;;;;;;;;5094890;28;20258;-44
2023/03/12 03:56:46;;;;;;;6.35;2.75;;;;;;;;;;5094842;28;20173;-44
2023/03/12 03:59:13;;;;;;;6.53;2.65;;;;;;;;;;5089703;28;20162;-45
2023/03/12 04:01:39;;;;;;;8.73;2.20;;;;;;;;;;5090470;28;20664;-46
2023/03/12 04:04:05;;;;;;;4.80;2.00;;;;;;;;;;5095529;28;20170;-46
2023/03/12 04:06:31;;;;;;;2.35;2.13;;;;;;;;;;5094579;28;20908;-45
2023/03/12 04:08:58;;;;;;;2.50;2.30;;;;;;;;;;5095082;28;20205;-44
2023/03/12 04:11:24;;;;;;;4.50;2.30;;;;;;;;;;5095490;28;20644;-46
2023/03/12 04:13:50;;;;;;;6.03;2.63;;;;;;;;;;5095332;28;20180;-44
2023/03/12 04:16:17;;;;;;;2.60;2.37;;;;;;;;;;5095477;28;20428;-44
2023/03/12 04:18:45;;;;;;;2.67;2.40;;;;;;;;;;5094004;28;20451;-44
2023/03/12 04:21:12;;;;;;;4.28;3.10;;;;;;;;;;5085214;28;20530;-46
2023/03/12 04:23:38;;;;;;;2.70;2.10;;;;;;;;;;5095804;28;20204;-44
2023/03/12 04:26:04;;;;;;;9.10;2.43;;;;;;;;;;5093621;28;20217;-46
2023/03/12 04:28:30;;;;;;;2.40;2.20;;;;;;;;;;5090194;28;20474;-45
2023/03/12 04:31:01;;;;;;;7.73;2.20;;;;;;;;;;5093171;28;20173;-44
2023/03/12 04:33:27;;;;;;;2.83;2.60;;;;;;;;;;5095243;28;20424;-44
2023/03/12 04:35:54;;;;;;;13.85;3.67;;;;;;;;;;5095075;28;20626;-44
2023/03/12 04:38:21;;;;;;;2.85;2.65;;;;;;;;;;5095913;28;20180;-45
2023/03/12 04:40:47;;;;;;;2.58;2.38;;;;;;;;;;5089135;28;20628;-45
2023/03/12 04:43:13;;;;;;;3.58;2.72;;;;;;;;;;5088810;28;20579;-45
2023/03/12 04:45:41;;;;;;;3.13;2.40;;;;;;;;;;5088097;28;20201;-45
2023/03/12 04:48:07;;;;;;;2.30;2.10;;;;;;;;;;5093573;28;20197;-44
2023/03/12 04:50:33;;;;;;;6.40;2.43;;;;;;;;;;5094842;28;20170;-45
2023/03/12 04:52:59;;;;;;;2.80;2.10;;;;;;;;;;5095433;28;20420;-46
2023/03/12 04:55:26;;;;;;;3.40;2.40;;;;;;;;;;5094729;28;20400;-46
2023/03/12 04:57:52;;;;;;;8.27;2.75;;;;;;;;;;5094996;28;20242;-46
2023/03/12 05:00:18;;;;;;;7.43;2.13;;;;;;;;;;5094117;28;20710;-46
2023/03/12 05:02:44;;;;;;;2.03;1.90;;;;;;;;;;5091906;28;20819;-45
2023/03/12 05:05:11;;;;;;;2.63;2.20;;;;;;;;;;5094494;28;20170;-44
2023/03/12 05:07:38;;;;;;;4.00;2.25;;;;;;;;;;5094294;28;20487;-44
2023/03/12 05:10:05;;;;;;;2.50;2.40;;;;;;;;;;5093455;28;20178;-44
2023/03/12 05:12:31;;;;;;;5.05;2.70;;;;;;;;;;5094144;28;20185;-45
2023/03/12 05:14:57;;;;;;;4.40;2.20;;;;;;;;;;5093727;28;20190;-44
2023/03/12 05:17:23;;;;;;;2.80;2.30;;;;;;;;;;5092019;28;20450;-43
2023/03/12 05:19:49;;;;;;;4.03;2.33;;;;;;;;;;5093409;28;20419;-45
2023/03/12 05:22:15;;;;;;;4.77;2.83;;;;;;;;;;5088106;28;20431;-44
2023/03/12 05:24:41;;;;;;;10.17;2.50;;;;;;;;;;5087028;28;20434;-44
2023/03/12 05:27:07;;;;;;;4.03;2.53;;;;;;;;;;5093315;28;20459;-44
2023/03/12 05:29:34;;;;;;;2.72;2.20;;;;;;;;;;5092647;28;20408;-44
2023/03/12 05:32:01;;;;;;;3.80;2.40;;;;;;;;;;5091761;28;20553;-44
2023/03/12 05:34:29;;;;;;;4.95;2.63;;;;;;;;;;5093303;28;20185;-46
2023/03/12 05:36:55;;;;;;;2.60;2.40;;;;;;;;;;5093351;28;20282;-43
2023/03/12 05:39:21;;;;;;;2.15;1.95;;;;;;;;;;5093471;28;20224;-45
2023/03/12 05:44:51;;;;;;;2.92;2.72;;;;;;;;;;5088298;28;20180;-43
2023/03/12 05:47:17;;;;;;;2.78;2.25;;;;;;;;;;5091494;28;20235;-44
2023/03/12 05:49:43;;;;;;;3.03;2.80;;;;;;;;;;5088177;28;20177;-44
2023/03/12 05:52:09;;;;;;;2.95;2.33;;;;;;;;;;5091755;28;20763;-43
2023/03/12 05:54:35;;;;;;;4.72;2.35;;;;;;;;;;5092627;28;20169;-43
2023/03/12 05:57:02;;;;;;;2.57;2.20;;;;;;;;;;5092497;28;20197;-44
2023/03/12 05:59:28;;;;;;;4.22;2.25;;;;;;;;;;5090942;28;20541;-43
2023/03/12 06:01:54;;;;;;;3.72;2.70;;;;;;;;;;5091470;28;20220;-43
2023/03/12 06:04:20;;;;;;;12.93;3.27;;;;;;;;;;5090867;28;20645;-43
2023/03/12 06:06:46;;;;;;;2.28;2.08;;;;;;;;;;5092017;28;20422;-43
2023/03/12 06:09:12;;;;;;;4.95;3.33;;;;;;;;;;5092235;28;20587;-43
2023/03/12 06:11:38;;;;;;;2.70;2.50;;;;;;;;;;5081784;28;20190;-43
2023/03/12 06:14:04;;;;;;;2.70;2.50;;;;;;;;;;5092231;28;20161;-43
2023/03/12 06:16:30;;;;;;;4.82;2.60;;;;;;;;;;5091938;28;20511;-44
2023/03/12 06:18:58;;;;;;;5.23;2.50;;;;;;;;;;5091978;28;20617;-43
2023/03/12 06:21:25;;;;;;;3.65;2.30;;;;;;;;;;5091405;28;20454;-43
2023/03/12 06:23:51;;;;;;;2.55;2.30;;;;;;;;;;5091897;28;20181;-44
2023/03/12 06:26:17;;;;;;;3.10;2.50;;;;;;;;;;5090684;28;20188;-43
2023/03/12 06:28:44;;;;;;;3.00;2.60;;;;;;;;;;5091651;28;20454;-43
2023/03/12 06:31:10;;;;;;;3.03;2.72;;;;;;;;;;5091518;28;20284;-44
2023/03/12 06:33:36;;;;;;;2.67;2.43;;;;;;;;;;5085091;28;20283;-43
2023/03/12 06:36:03;;;;;;;4.37;3.23;;;;;;;;;;5091925;28;20408;-43
2023/03/12 06:38:29;;;;;;;5.25;2.67;;;;;;;;;;5091838;28;20919;-44
2023/03/12 06:40:56;;;;;;;2.55;2.35;;;;;;;;;;5089293;28;20185;-44
2023/03/12 06:43:23;;;;;;;2.78;2.50;;;;;;;;;;5091664;28;20671;-44
2023/03/12 06:45:49;;;;;;;2.72;2.30;;;;;;;;;;5091749;28;20186;-44
2023/03/12 06:48:15;;;;;;;5.17;2.60;;;;;;;;;;5091660;28;20189;-44
2023/03/12 06:50:41;;;;;;;5.03;2.80;;;;;;;;;;5090638;28;20926;-43
2023/03/12 06:53:06;;;;;;;4.17;2.50;;;;;;;;;;5091294;28;20427;-44
2023/03/12 06:55:32;;;;;;;6.03;2.70;;;;;;;;;;5087920;28;20450;-43
2023/03/12 06:57:58;;;;;;;7.50;3.37;;;;;;;;;;5088765;28;20519;-43
2023/03/12 07:00:24;;;;;;;2.70;2.50;;;;;;;;;;5086390;28;20418;-43
2023/03/12 07:02:50;;;;;;;3.73;2.33;;;;;;;;;;5085222;28;20436;-44
2023/03/12 07:05:16;;;;;;;3.33;2.37;;;;;;;;;;5089774;28;20810;-44
2023/03/12 07:07:42;;;;;;;5.53;2.55;;;;;;;;;;5089059;28;20493;-43
2023/03/12 07:10:10;;;;;;;4.27;2.43;;;;;;;;;;5088215;28;20173;-44
2023/03/12 07:12:36;;;;;;;3.90;2.90;;;;;;;;;;5086774;28;20435;-43
2023/03/12 07:15:02;;;;;;;7.70;4.00;;;;;;;;;;5085324;28;20182;-44
2023/03/12 07:17:28;;;;;;;11.23;3.70;;;;;;;;;;5078986;28;20443;-44
2023/03/12 07:19:54;;;;;;;3.40;3.07;;;;;;;;;;5081014;28;20378;-43
2023/03/12 07:22:20;;;;;;;5.53;2.95;;;;;;;;;;5093936;28;20447;-43
2023/03/12 07:24:46;;;;;;;8.77;3.08;;;;;;;;;;5088099;28;20257;-43
2023/03/12 07:27:12;;;;;;;3.53;3.13;;;;;;;;;;5086502;28;20205;-43
2023/03/12 07:29:38;;;;;;;4.43;3.42;;;;;;;;;;5090420;28;20265;-43
2023/03/12 07:32:04;;;;;;;4.03;3.03;;;;;;;;;;5086772;28;20268;-44
2023/03/12 07:34:30;;;;;;;5.97;3.50;;;;;;;;;;5083052;28;20788;-43
2023/03/12 07:36:56;;;;;;;8.43;3.70;;;;;;;;;;5087106;28;20426;-43
2023/03/12 07:39:22;;;;;;;4.20;3.13;;;;;;;;;;5088718;28;20423;-43
2023/03/12 07:41:49;;;;;;;4.65;3.40;;;;;;;;;;5083249;28;20517;-44
2023/03/12 07:44:15;;;;;;;4.03;3.50;;;;;;;;;;5088746;28;20210;-43
2023/03/12 07:46:41;;;;;;;4.43;4.03;;;;;;;;;;5090005;28;20595;-43
2023/03/12 07:49:07;;;;;;;4.30;3.90;;;;;;;;;;5083332;28;20492;-43
2023/03/12 07:51:33;;;;;;;3.78;3.35;;;;;;;;;;5089382;28;20202;-44
2023/03/12 07:53:59;;;;;;;4.43;3.80;;;;;;;;;;5090720;28;20201;-43
2023/03/12 07:56:25;;;;;;;4.72;4.28;;;;;;;;;;5090519;28;20411;-44
2023/03/12 07:58:51;;;;;;;5.80;3.88;;;;;;;;;;5088714;28;20178;-43
2023/03/12 08:01:17;;;;;;;9.13;4.27;;;;;;;;;;5090506;28;20311;-44
2023/03/12 08:03:43;;;;;;;7.35;3.72;;;;;;;;;;5086053;28;20454;-44
2023/03/12 08:06:09;;;;;;;4.22;3.92;;;;;;;;;;5093604;28;20660;-43
2023/03/12 08:08:37;;;;;;;6.53;4.07;;;;;;;;;;5091720;28;20228;-43
2023/03/12 08:11:03;;;;;;;4.35;3.70;;;;;;;;;;5093583;28;20408;-44
2023/03/12 08:13:29;;;;;;;10.75;3.95;;;;;;;;;;5093890;28;20282;-43
2023/03/12 08:15:55;;;;;;;7.47;4.53;;;;;;;;;;5094026;28;20216;-43
2023/03/12 08:18:21;;;;;;;5.07;4.13;;;;;;;;;;5096445;28;20422;-43
2023/03/12 08:20:51;;;;;;;8.23;4.18;;;;;;;;;;5093509;28;20178;-43
2023/03/12 08:23:17;;;;;;;5.10;3.95;;;;;;;;;;5096393;28;20615;-44
2023/03/12 08:25:47;;;;;;;7.72;3.97;;;;;;;;;;5091139;28;20185;-44
2023/03/12 08:28:13;;;;;;;4.47;4.13;;;;;;;;;;5090780;28;20201;-44
2023/03/12 08:30:39;;;;;;;6.35;4.60;;;;;;;;;;5091944;28;20177;-44
2023/03/12 08:33:05;;;;;;;11.77;4.67;;;;;;;;;;5094394;28;20178;-44
2023/03/12 08:35:30;;;;;;;4.27;3.87;;;;;;;;;;5090804;28;20494;-45
2023/03/12 08:37:56;;;;;;;5.83;4.37;;;;;;;;;;5091936;28;20409;-45
2023/03/12 08:40:23;;;;;;;4.80;4.00;;;;;;;;;;5095425;28;20817;-44
2023/03/12 08:42:49;;;;;;;6.30;4.60;;;;;;;;;;5097586;28;20427;-45
2023/03/12 08:45:15;;;;;;;4.63;4.17;;;;;;;;;;5095547;28;20214;-45
2023/03/12 08:47:43;;;;;;;7.82;4.68;;;;;;;;;;5089414;28;20444;-46
2023/03/12 08:50:10;;;;;;;5.57;4.50;;;;;;;;;;5094660;28;20532;-44
2023/03/12 08:52:36;;;;;;;4.40;4.00;;;;;;;;;;5095196;28;20673;-46
2023/03/12 08:55:04;;;;;;;4.40;4.00;;;;;;;;;;5095667;28;20223;-46
2023/03/12 08:57:30;;;;;;;6.68;4.03;;;;;;;;;;5092220;28;20412;-46
2023/03/12 08:59:56;;;;;;;7.22;4.07;;;;;;;;;;5095195;28;20209;-46
2023/03/12 09:02:22;;;;;;;6.83;4.43;;;;;;;;;;5095068;28;20221;-46
2023/03/12 09:04:49;;;;;;;7.82;4.20;;;;;;;;;;5092673;28;20415;-45
2023/03/12 09:07:17;;;;;;;6.97;4.00;;;;;;;;;;5095639;28;20193;-45
2023/03/12 09:09:43;;;;;;;4.78;4.05;;;;;;;;;;5092326;28;20670;-44
2023/03/12 09:12:09;;;;;;;7.25;4.93;;;;;;;;;;5087827;28;20598;-45
2023/03/12 09:14:35;;;;;;;4.87;3.50;;;;;;;;;;5094559;28;20177;-46
2023/03/12 09:17:01;;;;;;;5.27;4.40;;;;;;;;;;5097562;28;20407;-45
2023/03/12 09:19:27;;;;;;;9.05;4.30;;;;;;;;;;5101395;28;20404;-47
2023/03/12 09:21:53;;;;;;;4.78;4.38;;;;;;;;;;5095280;28;20189;-46
2023/03/12 09:24:19;;;;;;;5.15;4.13;;;;;;;;;;5096816;27;20253;-46
2023/03/12 09:26:45;;;;;;;5.15;4.07;;;;;;;;;;5094931;28;20255;-46
2023/03/12 09:29:11;;;;;;;5.90;3.85;;;;;;;;;;5095196;28;20201;-46
2023/03/12 09:31:37;;;;;;;4.80;3.70;;;;;;;;;;5093848;28;20227;-44
2023/03/12 09:34:04;;;;;;;3.63;3.35;;;;;;;;;;5087498;28;20514;-44
2023/03/12 09:36:30;;;;;;;3.53;3.17;;;;;;;;;;5094495;28;20178;-46
2023/03/12 09:38:56;;;;;;;4.40;3.72;;;;;;;;;;5101903;28;20208;-45
2023/03/12 09:41:27;;;;;;;5.70;4.40;;;;;;;;;;5094504;28;20672;-46
2023/03/12 09:44:12;;;;;;;6.45;4.50;;;;;;;;;;5100674;28;20423;-44
2023/03/12 09:46:47;;;;;;;5.20;3.83;;;;;;;;;;5094728;28;20235;-47
2023/03/12 09:49:34;;;;;;;5.03;3.78;;;;;;;;;;5089394;28;20232;-46
2023/03/12 09:52:01;;;;;;;3.28;3.00;;;;;;;;;;5093376;28;20260;-45
2023/03/12 09:54:41;;;;;;;4.13;3.55;;;;;;;;;;5093283;28;20181;-46
2023/03/12 09:57:14;;;;;;;4.03;3.72;;;;;;;;;;5094634;28;20171;-45
2023/03/12 09:59:40;;;;;;;4.15;3.85;;;;;;;;;;5094259;28;20591;-45
2023/03/12 10:02:20;;;;;;;3.90;3.57;;;;;;;;;;5093198;28;20193;-45
2023/03/12 10:04:54;;;;;;;3.28;3.03;;;;;;;;;;5091723;28;20407;-44
2023/03/12 10:07:23;;;;;;;3.30;3.10;;;;;;;;;;5095575;28;20286;-46
2023/03/12 10:10:27;;;;;;;6.57;3.45;;;;;;;;;;5093665;28;20176;-47
2023/03/12 10:12:59;;;;;;;5.50;3.42;;;;;;;;;;5074413;28;20246;-44
2023/03/12 10:15:45;;;;;;;8.35;4.15;;;;;;;;;;5071021;28;20292;-46
2023/03/12 10:18:27;;;;;;;3.50;3.22;;;;;;;;;;5076013;28;20189;-48
2023/03/12 10:20:57;;;;;;;3.60;3.40;;;;;;;;;;5092501;28;20640;-46
2023/03/12 10:23:32;;;;;;;2.63;2.53;;;;;;;;;;5092811;28;20272;-46
2023/03/12 10:25:58;;;;;;;3.70;3.40;;;;;;;;;;5093853;28;20235;-44
2023/03/12 10:28:27;;;;;;;3.23;2.93;;;;;;;;;;5098533;28;20278;-47
2023/03/12 10:31:02;;;;;;;3.25;3.05;;;;;;;;;;5094279;28;20411;-45
2023/03/12 10:33:44;;;;;;;3.60;3.25;;;;;;;;;;5094506;28;20197;-46
2023/03/12 10:36:15;;;;;;;3.05;2.75;;;;;;;;;;5086671;28;20210;-46
2023/03/12 10:38:41;;;;;;;4.15;3.30;;;;;;;;;;5094441;28;20234;-46
2023/03/12 10:41:12;;;;;;;4.37;3.20;;;;;;;;;;5091617;28;20256;-46
2023/03/12 10:43:38;;;;;;;3.20;3.00;;;;;;;;;;5094795;28;20435;-46
2023/03/12 10:46:16;;;;;;;2.93;2.73;;;;;;;;;;5093971;28;20252;-44
2023/03/12 10:48:42;;;;;;;3.22;3.03;;;;;;;;;;5097293;28;20451;-45
2023/03/12 10:51:10;;;;;;;2.75;2.55;;;;;;;;;;5093989;28;20222;-45
2023/03/12 10:53:38;;;;;;;3.17;2.97;;;;;;;;;;5090202;28;20197;-46
2023/03/12 10:56:09;;;;;;;4.97;3.60;;;;;;;;;;5092865;28;20165;-46
2023/03/12 10:58:36;;;;;;;4.40;3.33;;;;;;;;;;5093555;28;20224;-45
2023/03/12 11:01:04;;;;;;;3.13;2.83;;;;;;;;;;5094029;28;20256;-45
2023/03/12 11:03:31;;;;;;;2.72;2.53;;;;;;;;;;5094276;28;20201;-45
2023/03/12 11:06:00;;;;;;;3.33;3.13;;;;;;;;;;5093881;28;20169;-46
2023/03/12 11:08:28;;;;;;;2.63;2.42;;;;;;;;;;5094236;28;20193;-46
2023/03/12 11:10:55;;;;;;;2.87;2.57;;;;;;;;;;5092235;28;20252;-45
2023/03/12 11:13:23;;;;;;;5.23;2.60;;;;;;;;;;5096031;28;20941;-46
2023/03/12 11:15:51;;;;;;;3.15;2.95;;;;;;;;;;5091101;28;20510;-45
2023/03/12 11:18:26;;;;;;;2.80;2.60;;;;;;;;;;5094306;28;20185;-46
2023/03/12 11:20:55;;;;;;;3.27;3.07;;;;;;;;;;5093254;28;20407;-44
2023/03/12 11:23:30;;;;;;;3.75;2.97;;;;;;;;;;5094035;28;20514;-45
2023/03/12 11:25:58;;;;;;;3.90;3.60;;;;;;;;;;5092043;28;20197;-46
2023/03/12 11:28:27;;;;;;;3.30;3.10;;;;;;;;;;5089639;28;20482;-45
2023/03/12 11:30:57;;;;;;;4.13;3.30;;;;;;;;;;5094504;28;20481;-44
2023/03/12 11:33:23;;;;;;;3.42;3.13;;;;;;;;;;5091724;28;20424;-44
2023/03/12 11:35:55;;;;;;;6.00;3.80;;;;;;;;;;5097868;28;20186;-45
2023/03/12 11:38:24;;;;;;;4.27;3.73;;;;;;;;;;5098502;28;20880;-45
2023/03/12 11:41:06;;;;;;;4.10;3.80;;;;;;;;;;5097299;28;20411;-47
2023/03/12 11:43:50;;;;;;;5.87;4.00;;;;;;;;;;5089472;28;20225;-47
2023/03/12 11:46:19;;;;;;;3.97;3.67;;;;;;;;;;5082582;28;20443;-45
2023/03/12 11:48:48;;;;;;;5.33;4.13;;;;;;;;;;5092532;28;20565;-46
2023/03/12 11:51:24;;;;;;;5.83;4.63;;;;;;;;;;5093714;28;20872;-46
2023/03/12 11:54:08;;;;;;;4.97;4.57;;;;;;;;;;5100187;28;20407;-46
2023/03/12 11:56:43;;;;;;;6.27;4.70;;;;;;;;;;5091694;28;20416;-46
2023/03/12 11:59:21;;;;;;;6.77;4.50;;;;;;;;;;5099826;28;20411;-46
2023/03/12 12:02:06;;;;;;;5.30;4.80;;;;;;;;;;5092309;28;20429;-46
2023/03/12 12:04:38;;;;;;;5.47;4.50;;;;;;;;;;5102292;28;20438;-45
2023/03/12 12:07:10;;;;;;;7.23;4.53;;;;;;;;;;5095569;28;20439;-45
2023/03/12 12:09:55;;;;;;;5.13;4.40;;;;;;;;;;5102868;28;21024;-45
2023/03/12 12:12:21;;;;;;;5.33;4.63;;;;;;;;;;5092093;28;20479;-46
2023/03/12 12:14:52;;;;;;;6.20;4.30;;;;;;;;;;5095871;28;20421;-45
2023/03/12 12:17:34;;;;;;;4.03;3.73;;;;;;;;;;5093152;28;20980;-47
2023/03/12 12:20:08;;;;;;;3.53;3.23;;;;;;;;;;5092987;28;20414;-47
2023/03/12 12:22:34;;;;;;;4.20;3.80;;;;;;;;;;5095599;28;20516;-46
2023/03/12 12:25:16;;;;;;;4.60;4.20;;;;;;;;;;5095415;28;20452;-45
2023/03/12 12:27:45;;;;;;;4.30;3.90;;;;;;;;;;5094752;28;20454;-46
2023/03/12 12:30:22;;;;;;;4.27;3.90;;;;;;;;;;5092136;28;20411;-45
2023/03/12 12:33:06;;;;;;;4.60;4.20;;;;;;;;;;5094634;28;20427;-46
2023/03/12 12:35:32;;;;;;;4.50;4.10;;;;;;;;;;5100211;28;20785;-44
2023/03/12 12:38:04;;;;;;;6.13;4.30;;;;;;;;;;5094473;28;20415;-47
2023/03/12 12:40:36;;;;;;;5.87;5.37;;;;;;;;;;5091701;28;20438;-46
2023/03/12 12:43:10;;;;;;;4.77;4.37;;;;;;;;;;5094165;28;20430;-48
2023/03/12 12:45:40;;;;;;;6.53;5.13;;;;;;;;;;5090552;28;20512;-45
2023/03/12 12:48:08;;;;;;;6.27;5.17;;;;;;;;;;5094076;28;20819;-45
2023/03/12 12:50:36;;;;;;;6.70;6.00;;;;;;;;;;5094220;28;20418;-46
2023/03/12 12:53:08;;;;;;;6.40;5.50;;;;;;;;;;5094917;28;20431;-44
2023/03/12 12:55:40;;;;;;;7.10;6.40;;;;;;;;;;5099078;28;20414;-44
2023/03/12 12:58:17;;;;;;;9.50;6.03;;;;;;;;;;5094277;28;20417;-46
2023/03/12 13:00:51;;;;;;;11.03;7.47;;;;;;;;;;5096876;27;20455;-44
2023/03/12 13:03:19;;;;;;;11.90;8.07;;;;;;;;;;5088820;28;20489;-45
2023/03/12 13:05:46;;;;;;;12.90;7.07;;;;;;;;;;5090743;28;20443;-45
2023/03/12 13:08:33;;;;;;;8.97;7.00;;;;;;;;;;5093831;28;20447;-45
2023/03/12 13:11:03;;;;;;;15.57;7.20;;;;;;;;;;5091658;28;20454;-47
2023/03/12 13:13:29;;;;;;;11.10;7.13;;;;;;;;;;5094678;28;20953;-46
2023/03/12 13:16:13;;;;;;;13.10;7.10;;;;;;;;;;5093446;28;20430;-46
2023/03/12 13:18:39;;;;;;;10.00;7.00;;;;;;;;;;5095880;28;20473;-47
2023/03/12 13:21:05;;;;;;;13.20;6.80;;;;;;;;;;5093410;28;20456;-46
2023/03/12 13:23:38;;;;;;;9.30;7.90;;;;;;;;;;5091361;28;20442;-46
2023/03/12 13:26:07;;;;;;;14.20;7.87;;;;;;;;;;5089604;28;20422;-46
2023/03/12 13:28:51;;;;;;;16.90;8.50;;;;;;;;;;5089057;28;20994;-46
2023/03/12 13:31:20;;;;;;;9.47;6.93;;;;;;;;;;5085402;28;20419;-46
2023/03/12 13:33:47;;;;;;;9.90;6.17;;;;;;;;;;5091273;28;20946;-44
2023/03/12 13:36:25;;;;;;;14.10;6.60;;;;;;;;;;5086616;28;20934;-45
2023/03/12 13:38:59;;;;;;;8.23;5.70;;;;;;;;;;5085456;28;20411;-44
2023/03/12 13:41:39;;;;;;;10.50;7.47;;;;;;;;;;5091621;28;20440;-44
2023/03/12 13:44:24;;;;;;;10.33;6.43;;;;;;;;;;5090709;28;20419;-45
2023/03/12 13:47:23;;;;;;;15.70;7.13;;;;;;;;;;5082873;28;20425;-44
2023/03/12 13:49:53;;;;;;;15.90;7.33;;;;;;;;;;5088878;28;20870;-44
2023/03/12 13:52:25;;;;;;;12.77;7.30;;;;;;;;;;5087874;28;20422;-45
2023/03/12 13:54:59;;;;;;;16.83;7.60;;;;;;;;;;5093788;28;20902;-44
2023/03/12 13:57:30;;;;;;;17.80;8.13;;;;;;;;;;5096782;28;20785;-45
2023/03/12 13:59:57;;;;;;;23.47;8.70;;;;;;;;;;5093510;28;20969;-44
2023/03/12 14:02:29;;;;;;;22.00;8.30;;;;;;;;;;5093293;28;20529;-44
2023/03/12 14:05:01;;;;;;;19.87;7.93;;;;;;;;;;5092259;28;20495;-44
2023/03/12 14:07:33;;;;;;;15.67;8.20;;;;;;;;;;5086753;28;21162;-44
2023/03/12 14:10:05;;;;;;;15.80;7.20;;;;;;;;;;5087515;28;20433;-44
2023/03/12 14:12:31;;;;;;;20.30;8.17;;;;;;;;;;5090312;28;20427;-44
2023/03/12 14:15:15;;;;;;;16.53;7.13;;;;;;;;;;5091878;28;20960;-44
2023/03/12 14:17:42;;;;;;;16.30;6.40;;;;;;;;;;5097649;28;20515;-44
2023/03/12 14:20:17;;;;;;;21.57;7.63;;;;;;;;;;5090942;28;20973;-44
2023/03/12 14:22:45;;;;;;;15.50;7.10;;;;;;;;;;5091694;28;20431;-45
2023/03/12 14:25:13;;;;;;;17.90;7.77;;;;;;;;;;5090584;28;20407;-44
2023/03/12 14:27:40;;;;;;;30.13;8.07;;;;;;;;;;5094032;28;20859;-44
2023/03/12 14:30:16;;;;;;;22.97;7.80;;;;;;;;;;5091018;28;21079;-45
2023/03/12 14:32:42;;;;;;;13.07;7.10;;;;;;;;;;5091701;28;20443;-44
2023/03/12 14:35:11;;;;;;;23.30;7.57;;;;;;;;;;5090141;28;20453;-45
2023/03/12 14:37:43;;;;;;;26.47;7.67;;;;;;;;;;5091692;28;20423;-44
2023/03/12 14:40:25;;;;;;;28.83;7.67;;;;;;;;;;5086062;28;20781;-44
2023/03/12 14:42:52;;;;;;;26.63;7.50;;;;;;;;;;5090510;28;20806;-44
2023/03/12 14:45:19;;;;;;;21.90;7.13;;;;;;;;;;5096132;28;20407;-44
2023/03/12 14:47:47;;;;;;;17.90;7.20;;;;;;;;;;5094524;28;20546;-44
2023/03/12 14:50:17;;;;;;;19.10;7.00;;;;;;;;;;5089156;28;20497;-44
2023/03/12 14:52:43;;;;;;;16.77;7.53;;;;;;;;;;5090307;28;20450;-45